createdAt,value
2016-08-17T00:00:24.525Z,0
2016-08-17T00:01:23.812Z,0
2016-08-17T00:02:23.806Z,0
2016-08-17T00:03:23.843Z,0
2016-08-17T00:04:23.875Z,0
2016-08-17T00:05:23.819Z,0
2016-08-17T00:06:23.850Z,0
2016-08-17T00:07:23.885Z,0
2016-08-17T00:08:23.875Z,0
2016-08-17T00:09:23.914Z,0
2016-08-17T00:10:23.932Z,0
2016-08-17T00:11:23.919Z,0
2016-08-17T00:12:23.971Z,0
2016-08-17T00:13:23.897Z,0
2016-08-17T00:14:23.949Z,0
2016-08-17T00:15:23.932Z,0
2016-08-17T00:16:23.958Z,0
2016-08-17T00:17:23.953Z,0
2016-08-17T00:18:23.977Z,0
2016-08-17T00:19:24.000Z,0
2016-08-17T00:20:24.002Z,0
2016-08-17T00:21:24.012Z,0
2016-08-17T00:22:23.987Z,0
2016-08-17T00:23:24.045Z,0
2016-08-17T00:24:24.038Z,0
2016-08-17T00:25:24.058Z,0
2016-08-17T00:26:24.066Z,0
2016-08-17T00:27:24.026Z,0
2016-08-17T00:28:24.041Z,0
2016-08-17T00:29:24.054Z,0
2016-08-17T00:30:24.054Z,0
2016-08-17T00:31:24.744Z,0
2016-08-17T00:32:24.080Z,0
2016-08-17T00:33:24.076Z,0
2016-08-17T00:34:24.086Z,0
2016-08-17T00:35:24.106Z,0
2016-08-17T00:36:24.117Z,0
2016-08-17T00:37:24.080Z,0
2016-08-17T00:38:24.112Z,0
2016-08-17T00:39:24.152Z,0
2016-08-17T00:40:24.151Z,0
2016-08-17T00:41:24.197Z,0
2016-08-17T00:42:24.166Z,0
2016-08-17T00:43:24.151Z,0
2016-08-17T00:44:24.163Z,0
2016-08-17T00:45:24.203Z,0
2016-08-17T00:46:24.217Z,0
2016-08-17T00:47:24.190Z,0
2016-08-17T00:48:24.207Z,0
2016-08-17T00:49:24.255Z,0
2016-08-17T00:50:24.233Z,0
2016-08-17T00:51:24.244Z,0
2016-08-17T00:52:24.260Z,0
2016-08-17T00:53:24.272Z,0
2016-08-17T00:54:24.264Z,0
2016-08-17T00:55:24.261Z,0
2016-08-17T00:56:24.294Z,0
2016-08-17T00:57:24.303Z,0
2016-08-17T00:58:24.313Z,0
2016-08-17T00:59:24.322Z,0
2016-08-17T01:00:24.350Z,0
2016-08-17T01:01:24.372Z,0
2016-08-17T01:02:24.327Z,0
2016-08-17T01:03:24.353Z,0
2016-08-17T01:04:24.354Z,0
2016-08-17T01:05:24.382Z,0
2016-08-17T01:06:24.378Z,0
2016-08-17T01:07:24.379Z,0
2016-08-17T01:08:24.400Z,0
2016-08-17T01:09:24.404Z,0
2016-08-17T01:10:24.421Z,0
2016-08-17T01:11:24.419Z,0
2016-08-17T01:12:24.417Z,0
2016-08-17T01:13:24.471Z,0
2016-08-17T01:14:24.424Z,0
2016-08-17T01:15:24.468Z,0
2016-08-17T01:16:25.185Z,0
2016-08-17T01:17:24.491Z,0
2016-08-17T01:18:24.454Z,0
2016-08-17T01:19:24.490Z,0
2016-08-17T01:20:24.507Z,0
2016-08-17T01:21:24.501Z,0
2016-08-17T01:22:24.546Z,0
2016-08-17T01:23:24.547Z,0
2016-08-17T01:24:24.542Z,0
2016-08-17T01:25:24.541Z,0
2016-08-17T01:26:24.567Z,0
2016-08-17T01:27:24.536Z,0
2016-08-17T01:28:24.582Z,0
2016-08-17T01:29:25.320Z,0
2016-08-17T01:30:24.585Z,0
2016-08-17T01:31:24.587Z,0
2016-08-17T01:32:24.600Z,0
2016-08-17T01:33:24.624Z,0
2016-08-17T01:34:24.608Z,0
2016-08-17T01:35:24.634Z,0
2016-08-17T01:36:24.674Z,0
2016-08-17T01:37:24.672Z,0
2016-08-17T01:38:24.671Z,0
2016-08-17T01:39:24.663Z,0
2016-08-17T01:40:24.684Z,0
2016-08-17T01:41:24.728Z,0
2016-08-17T01:42:24.676Z,0
2016-08-17T01:43:24.687Z,0
2016-08-17T01:44:24.705Z,0
2016-08-17T01:45:25.409Z,0
2016-08-17T01:46:24.700Z,0
2016-08-17T01:47:24.727Z,0
2016-08-17T01:48:24.736Z,0
2016-08-17T01:49:24.743Z,0
2016-08-17T01:50:24.743Z,0
2016-08-17T01:51:24.769Z,0
2016-08-17T01:52:24.790Z,0
2016-08-17T01:53:24.775Z,0
2016-08-17T01:54:24.775Z,0
2016-08-17T01:55:24.809Z,0
2016-08-17T01:56:24.832Z,0
2016-08-17T01:57:24.804Z,0
2016-08-17T01:58:24.853Z,0
2016-08-17T01:59:24.822Z,0
2016-08-17T02:00:24.826Z,0
2016-08-17T02:01:24.863Z,0
2016-08-17T02:02:24.863Z,0
2016-08-17T02:03:24.868Z,0
2016-08-17T02:04:24.888Z,0
2016-08-17T02:05:24.907Z,0
2016-08-17T02:06:24.899Z,0
2016-08-17T02:07:24.930Z,0
2016-08-17T02:08:24.906Z,0
2016-08-17T02:09:24.933Z,0
2016-08-17T02:10:24.951Z,0
2016-08-17T02:11:24.934Z,0
2016-08-17T02:12:24.958Z,0
2016-08-17T02:13:24.983Z,0
2016-08-17T02:14:24.997Z,0
2016-08-17T02:15:24.970Z,0
2016-08-17T02:16:24.991Z,0
2016-08-17T02:17:24.991Z,0
2016-08-17T02:18:24.995Z,0
2016-08-17T02:19:25.030Z,0
2016-08-17T02:20:25.030Z,0
2016-08-17T02:21:25.014Z,0
2016-08-17T02:22:25.051Z,0
2016-08-17T02:23:25.016Z,0
2016-08-17T02:24:25.066Z,0
2016-08-17T02:25:25.074Z,0
2016-08-17T02:26:25.063Z,0
2016-08-17T02:27:25.099Z,0
2016-08-17T02:28:25.073Z,0
2016-08-17T02:29:25.102Z,0
2016-08-17T02:30:25.127Z,0
2016-08-17T02:31:25.100Z,0
2016-08-17T02:32:25.138Z,0
2016-08-17T02:33:25.131Z,0
2016-08-17T02:34:25.129Z,0
2016-08-17T02:35:25.177Z,0
2016-08-17T02:36:25.200Z,0
2016-08-17T02:37:25.156Z,0
2016-08-17T02:38:25.170Z,0
2016-08-17T02:39:25.193Z,0
2016-08-17T02:40:25.202Z,0
2016-08-17T02:41:25.377Z,0
2016-08-17T02:42:25.202Z,0
2016-08-17T02:43:25.213Z,0
2016-08-17T02:44:25.237Z,0
2016-08-17T02:45:25.250Z,0
2016-08-17T02:46:25.230Z,0
2016-08-17T02:47:25.266Z,0
2016-08-17T02:48:25.268Z,0
2016-08-17T02:49:25.289Z,0
2016-08-17T02:50:25.306Z,0
2016-08-17T02:51:25.305Z,0
2016-08-17T02:52:25.292Z,0
2016-08-17T02:53:25.326Z,0
2016-08-17T02:54:25.318Z,0
2016-08-17T02:55:25.343Z,0
2016-08-17T02:56:25.333Z,0
2016-08-17T02:57:25.337Z,0
2016-08-17T02:58:25.352Z,0
2016-08-17T02:59:25.356Z,0
2016-08-17T03:00:25.364Z,0
2016-08-17T03:01:25.409Z,0
2016-08-17T03:02:25.402Z,0
2016-08-17T03:03:25.390Z,0
2016-08-17T03:04:25.431Z,0
2016-08-17T03:05:25.435Z,0
2016-08-17T03:06:25.416Z,0
2016-08-17T03:07:25.460Z,0
2016-08-17T03:08:25.464Z,0
2016-08-17T03:09:25.460Z,0
2016-08-17T03:10:26.135Z,0
2016-08-17T03:11:25.448Z,0
2016-08-17T03:12:25.458Z,0
2016-08-17T03:13:25.459Z,0
2016-08-17T03:14:25.483Z,0
2016-08-17T03:15:25.484Z,0
2016-08-17T03:16:25.539Z,0
2016-08-17T03:17:25.529Z,0
2016-08-17T03:18:25.535Z,0
2016-08-17T03:19:25.535Z,0
2016-08-17T03:20:25.533Z,0
2016-08-17T03:21:25.549Z,0
2016-08-17T03:22:25.562Z,0
2016-08-17T03:23:25.567Z,0
2016-08-17T03:24:25.562Z,0
2016-08-17T03:25:25.594Z,0
2016-08-17T03:26:25.612Z,0
2016-08-17T03:27:25.593Z,0
2016-08-17T03:28:25.614Z,0
2016-08-17T03:29:25.632Z,0
2016-08-17T03:30:25.625Z,0
2016-08-17T03:31:25.620Z,0
2016-08-17T03:32:25.624Z,0
2016-08-17T03:33:25.677Z,0
2016-08-17T03:34:25.651Z,0
2016-08-17T03:35:25.667Z,0
2016-08-17T03:36:25.706Z,0
2016-08-17T03:37:25.707Z,0
2016-08-17T03:38:26.436Z,0
2016-08-17T03:39:25.707Z,0
2016-08-17T03:40:25.689Z,0
2016-08-17T03:41:25.783Z,0
2016-08-17T03:42:25.731Z,0
2016-08-17T03:43:25.775Z,0
2016-08-17T03:44:25.755Z,0
2016-08-17T03:45:25.758Z,0
2016-08-17T03:46:25.759Z,0
2016-08-17T03:47:25.747Z,0
2016-08-17T03:48:25.787Z,0
2016-08-17T03:49:25.791Z,0
2016-08-17T03:50:25.829Z,0
2016-08-17T03:51:25.796Z,0
2016-08-17T03:52:25.802Z,0
2016-08-17T03:53:26.502Z,0
2016-08-17T03:54:25.822Z,0
2016-08-17T03:55:25.836Z,0
2016-08-17T03:56:25.832Z,0
2016-08-17T03:57:25.877Z,0
2016-08-17T03:58:25.854Z,0
2016-08-17T03:59:25.880Z,0
2016-08-17T04:00:25.898Z,0
2016-08-17T04:01:25.900Z,0
2016-08-17T04:02:25.913Z,0
2016-08-17T04:03:25.902Z,0
2016-08-17T04:04:25.898Z,0
2016-08-17T04:05:25.932Z,0
2016-08-17T04:06:26.641Z,0
2016-08-17T04:07:25.928Z,0
2016-08-17T04:08:25.945Z,0
2016-08-17T04:09:25.954Z,0
2016-08-17T04:10:25.966Z,0
2016-08-17T04:11:25.994Z,0
2016-08-17T04:12:26.002Z,0
2016-08-17T04:13:26.014Z,0
2016-08-17T04:14:25.973Z,0
2016-08-17T04:15:26.011Z,0
2016-08-17T04:16:26.025Z,0
2016-08-17T04:17:26.039Z,0
2016-08-17T04:18:26.021Z,0
2016-08-17T04:19:26.030Z,0
2016-08-17T04:20:26.027Z,0
2016-08-17T04:21:26.084Z,0
2016-08-17T04:22:26.062Z,0
2016-08-17T04:23:26.113Z,0
2016-08-17T04:24:26.079Z,0
2016-08-17T04:25:26.087Z,0
2016-08-17T04:26:26.093Z,0
2016-08-17T04:27:26.107Z,0
2016-08-17T04:28:26.108Z,0
2016-08-17T04:29:26.131Z,0
2016-08-17T04:30:26.150Z,0
2016-08-17T04:31:26.137Z,0
2016-08-17T04:32:26.149Z,0
2016-08-17T04:33:26.162Z,0
2016-08-17T04:34:26.226Z,0
2016-08-17T04:35:26.196Z,0
2016-08-17T04:36:26.201Z,0
2016-08-17T04:37:26.225Z,0
2016-08-17T04:38:26.247Z,0
2016-08-17T04:39:26.238Z,0
2016-08-17T04:40:26.203Z,0
2016-08-17T04:41:26.336Z,0
2016-08-17T04:42:26.246Z,0
2016-08-17T04:43:26.263Z,0
2016-08-17T04:44:26.265Z,0
2016-08-17T04:45:26.242Z,0
2016-08-17T04:46:26.300Z,0
2016-08-17T04:47:26.304Z,0
2016-08-17T04:48:26.294Z,0
2016-08-17T04:49:26.321Z,0
2016-08-17T04:50:26.300Z,0
2016-08-17T04:51:26.321Z,0
2016-08-17T04:52:26.335Z,0
2016-08-17T04:53:26.349Z,0
2016-08-17T04:54:26.366Z,0
2016-08-17T04:55:26.356Z,0
2016-08-17T04:56:26.351Z,0
2016-08-17T04:57:26.366Z,0
2016-08-17T04:58:26.391Z,0
2016-08-17T04:59:26.399Z,0
2016-08-17T05:00:26.406Z,0
2016-08-17T05:01:26.431Z,0
2016-08-17T05:02:26.394Z,0
2016-08-17T05:03:26.417Z,0
2016-08-17T05:04:26.454Z,0
2016-08-17T05:05:26.475Z,0
2016-08-17T05:06:26.452Z,0
2016-08-17T05:07:26.424Z,0
2016-08-17T05:08:26.464Z,0
2016-08-17T05:09:26.485Z,0
2016-08-17T05:10:26.492Z,0
2016-08-17T05:11:26.508Z,0
2016-08-17T05:12:26.544Z,0
2016-08-17T05:13:26.501Z,0
2016-08-17T05:14:26.532Z,0
2016-08-17T05:15:26.522Z,0
2016-08-17T05:16:26.564Z,0
2016-08-17T05:17:26.519Z,0
2016-08-17T05:18:26.538Z,0
2016-08-17T05:19:26.553Z,0
2016-08-17T05:20:26.569Z,5
2016-08-17T05:21:26.592Z,5
2016-08-17T05:22:26.592Z,5
2016-08-17T05:23:26.591Z,5
2016-08-17T05:24:26.618Z,5
2016-08-17T05:25:26.583Z,5
2016-08-17T05:26:26.622Z,5
2016-08-17T05:27:27.339Z,5
2016-08-17T05:28:26.657Z,5
2016-08-17T05:29:26.651Z,5
2016-08-17T05:30:26.670Z,5
2016-08-17T05:31:26.674Z,5
2016-08-17T05:32:26.694Z,5
2016-08-17T05:33:26.654Z,5
2016-08-17T05:34:26.697Z,5
2016-08-17T05:35:26.715Z,5
2016-08-17T05:36:26.712Z,5
2016-08-17T05:37:26.707Z,5
2016-08-17T05:38:26.720Z,5
2016-08-17T05:39:26.757Z,5
2016-08-17T05:40:26.773Z,5
2016-08-17T05:41:26.956Z,5
2016-08-17T05:42:26.770Z,5
2016-08-17T05:43:26.789Z,5
2016-08-17T05:44:26.764Z,5
2016-08-17T05:45:27.058Z,5
2016-08-17T05:46:26.798Z,5
2016-08-17T05:47:26.808Z,5
2016-08-17T05:48:27.516Z,5
2016-08-17T05:49:26.837Z,5
2016-08-17T05:50:26.834Z,5
2016-08-17T05:51:26.863Z,5
2016-08-17T05:52:26.813Z,5
2016-08-17T05:53:26.860Z,5
2016-08-17T05:54:26.876Z,5
2016-08-17T05:55:27.548Z,5
2016-08-17T05:56:26.906Z,5
2016-08-17T05:57:26.914Z,5
2016-08-17T05:58:26.922Z,5
2016-08-17T05:59:26.935Z,5
2016-08-17T06:00:26.913Z,5
2016-08-17T06:01:26.919Z,5
2016-08-17T06:02:26.956Z,5
2016-08-17T06:03:26.938Z,5
2016-08-17T06:04:27.627Z,5
2016-08-17T06:05:26.941Z,5
2016-08-17T06:06:26.964Z,5
2016-08-17T06:07:26.961Z,5
2016-08-17T06:08:27.023Z,5
2016-08-17T06:09:27.009Z,5
2016-08-17T06:10:27.000Z,5
2016-08-17T06:11:27.036Z,5
2016-08-17T06:12:27.026Z,5
2016-08-17T06:13:27.025Z,5
2016-08-17T06:14:27.029Z,5
2016-08-17T06:15:27.027Z,5
2016-08-17T06:16:27.070Z,5
2016-08-17T06:17:27.050Z,5
2016-08-17T06:18:27.095Z,5
2016-08-17T06:19:27.075Z,5
2016-08-17T06:20:27.079Z,5
2016-08-17T06:21:27.105Z,5
2016-08-17T06:22:27.119Z,5
2016-08-17T06:23:27.104Z,5
2016-08-17T06:24:27.132Z,5
2016-08-17T06:25:27.126Z,5
2016-08-17T06:26:27.133Z,5
2016-08-17T06:27:27.156Z,5
2016-08-17T06:28:27.177Z,5
2016-08-17T06:29:27.909Z,5
2016-08-17T06:30:27.163Z,5
2016-08-17T06:31:27.173Z,5
2016-08-17T06:32:27.185Z,5
2016-08-17T06:33:27.188Z,5
2016-08-17T06:34:27.214Z,5
2016-08-17T06:35:27.214Z,5
2016-08-17T06:36:27.238Z,10
2016-08-17T06:37:27.219Z,10
2016-08-17T06:38:27.241Z,10
2016-08-17T06:39:27.248Z,10
2016-08-17T06:40:27.237Z,10
2016-08-17T06:41:28.109Z,10
2016-08-17T06:42:27.275Z,10
2016-08-17T06:43:27.276Z,10
2016-08-17T06:44:27.302Z,10
2016-08-17T06:45:27.295Z,10
2016-08-17T06:46:27.308Z,10
2016-08-17T06:47:27.322Z,10
2016-08-17T06:48:27.347Z,10
2016-08-17T06:49:27.339Z,10
2016-08-17T06:50:27.352Z,10
2016-08-17T06:51:27.354Z,10
2016-08-17T06:52:27.376Z,10
2016-08-17T06:53:27.331Z,10
2016-08-17T06:54:27.404Z,10
2016-08-17T06:55:27.387Z,10
2016-08-17T06:56:27.398Z,10
2016-08-17T06:57:27.404Z,10
2016-08-17T06:58:27.401Z,10
2016-08-17T06:59:27.418Z,10
2016-08-17T07:00:27.423Z,10
2016-08-17T07:01:27.460Z,10
2016-08-17T07:02:27.442Z,10
2016-08-17T07:03:27.461Z,10
2016-08-17T07:04:27.482Z,15
2016-08-17T07:05:27.483Z,15
2016-08-17T07:06:27.489Z,15
2016-08-17T07:07:27.483Z,15
2016-08-17T07:08:27.508Z,15
2016-08-17T07:09:28.228Z,15
2016-08-17T07:10:27.521Z,15
2016-08-17T07:11:27.534Z,15
2016-08-17T07:12:27.539Z,15
2016-08-17T07:13:27.527Z,20
2016-08-17T07:14:27.551Z,15
2016-08-17T07:15:27.533Z,15
2016-08-17T07:16:27.549Z,15
2016-08-17T07:17:27.559Z,20
2016-08-17T07:18:27.576Z,20
2016-08-17T07:19:27.603Z,20
2016-08-17T07:20:27.580Z,20
2016-08-17T07:21:27.602Z,20
2016-08-17T07:22:27.652Z,20
2016-08-17T07:23:27.649Z,15
2016-08-17T07:24:27.659Z,15
2016-08-17T07:25:27.665Z,20
2016-08-17T07:26:27.652Z,20
2016-08-17T07:27:27.655Z,20
2016-08-17T07:28:27.669Z,20
2016-08-17T07:29:27.704Z,20
2016-08-17T07:30:27.698Z,20
2016-08-17T07:31:27.708Z,20
2016-08-17T07:32:27.732Z,20
2016-08-17T07:33:27.741Z,20
2016-08-17T07:34:27.761Z,20
2016-08-17T07:35:27.749Z,20
2016-08-17T07:36:27.730Z,20
2016-08-17T07:37:27.778Z,20
2016-08-17T07:38:27.756Z,20
2016-08-17T07:39:27.764Z,20
2016-08-17T07:40:27.756Z,20
2016-08-17T07:41:27.767Z,20
2016-08-17T07:42:27.848Z,20
2016-08-17T07:43:27.791Z,20
2016-08-17T07:44:27.804Z,20
2016-08-17T07:45:28.511Z,20
2016-08-17T07:46:27.792Z,20
2016-08-17T07:47:27.838Z,20
2016-08-17T07:48:27.869Z,20
2016-08-17T07:49:27.867Z,20
2016-08-17T07:50:27.852Z,20
2016-08-17T07:51:27.894Z,20
2016-08-17T07:52:27.854Z,20
2016-08-17T07:53:27.901Z,20
2016-08-17T07:54:27.880Z,20
2016-08-17T07:55:27.907Z,20
2016-08-17T07:56:27.930Z,20
2016-08-17T07:57:27.933Z,20
2016-08-17T07:58:27.921Z,20
2016-08-17T07:59:27.965Z,20
2016-08-17T08:00:27.976Z,20
2016-08-17T08:01:27.966Z,20
2016-08-17T08:02:27.950Z,20
2016-08-17T08:03:27.985Z,20
2016-08-17T08:04:27.946Z,20
2016-08-17T08:05:28.023Z,20
2016-08-17T08:06:28.033Z,20
2016-08-17T08:07:28.009Z,20
2016-08-17T08:08:28.048Z,20
2016-08-17T08:09:28.021Z,20
2016-08-17T08:10:28.048Z,20
2016-08-17T08:11:28.070Z,20
2016-08-17T08:12:28.052Z,20
2016-08-17T08:13:28.049Z,20
2016-08-17T08:14:28.081Z,20
2016-08-17T08:15:28.794Z,20
2016-08-17T08:16:28.092Z,20
2016-08-17T08:17:28.087Z,20
2016-08-17T08:18:28.120Z,20
2016-08-17T08:19:28.114Z,20
2016-08-17T08:20:28.128Z,20
2016-08-17T08:21:28.160Z,20
2016-08-17T08:22:28.135Z,20
2016-08-17T08:23:28.146Z,20
2016-08-17T08:24:28.159Z,20
2016-08-17T08:25:28.151Z,20
2016-08-17T08:26:28.169Z,20
2016-08-17T08:27:28.182Z,15
2016-08-17T08:28:28.186Z,20
2016-08-17T08:29:28.189Z,20
2016-08-17T08:30:28.203Z,15
2016-08-17T08:31:28.218Z,15
2016-08-17T08:32:28.214Z,15
2016-08-17T08:33:28.223Z,15
2016-08-17T08:34:28.233Z,20
2016-08-17T08:35:28.946Z,20
2016-08-17T08:36:28.260Z,20
2016-08-17T08:37:28.318Z,20
2016-08-17T08:38:28.291Z,20
2016-08-17T08:39:28.268Z,20
2016-08-17T08:40:28.314Z,15
2016-08-17T08:41:28.315Z,15
2016-08-17T08:42:28.303Z,15
2016-08-17T08:43:28.350Z,15
2016-08-17T08:44:28.329Z,15
2016-08-17T08:45:28.346Z,15
2016-08-17T08:46:28.394Z,10
2016-08-17T08:47:28.358Z,15
2016-08-17T08:48:28.399Z,20
2016-08-17T08:49:28.399Z,15
2016-08-17T08:50:28.389Z,15
2016-08-17T08:51:28.420Z,20
2016-08-17T08:52:28.397Z,15
2016-08-17T08:53:28.386Z,15
2016-08-17T08:54:28.413Z,15
2016-08-17T08:55:28.451Z,20
2016-08-17T08:56:28.435Z,20
2016-08-17T08:57:28.460Z,15
2016-08-17T08:58:28.471Z,15
2016-08-17T08:59:28.475Z,20
2016-08-17T09:00:28.503Z,20
2016-08-17T09:01:28.472Z,20
2016-08-17T09:02:28.522Z,20
2016-08-17T09:03:28.527Z,20
2016-08-17T09:04:28.521Z,15
2016-08-17T09:05:28.532Z,20
2016-08-17T09:06:28.551Z,20
2016-08-17T09:07:28.540Z,15
2016-08-17T09:08:28.541Z,15
2016-08-17T09:09:28.557Z,20
2016-08-17T09:10:28.574Z,20
2016-08-17T09:11:28.588Z,20
2016-08-17T09:12:28.594Z,20
2016-08-17T09:13:28.589Z,20
2016-08-17T09:14:28.596Z,20
2016-08-17T09:15:28.616Z,20
2016-08-17T09:16:28.646Z,20
2016-08-17T09:17:28.613Z,20
2016-08-17T09:18:28.616Z,20
2016-08-17T09:19:28.635Z,20
2016-08-17T09:20:28.658Z,20
2016-08-17T09:21:28.632Z,20
2016-08-17T09:22:28.674Z,20
2016-08-17T09:23:28.665Z,20
2016-08-17T09:24:28.705Z,20
2016-08-17T09:25:28.680Z,20
2016-08-17T09:26:28.689Z,20
2016-08-17T09:27:28.720Z,20
2016-08-17T09:28:28.774Z,20
2016-08-17T09:29:28.706Z,20
2016-08-17T09:30:28.761Z,20
2016-08-17T09:31:28.750Z,20
2016-08-17T09:32:28.760Z,20
2016-08-17T09:33:28.795Z,20
2016-08-17T09:34:28.788Z,20
2016-08-17T09:35:28.767Z,20
2016-08-17T09:36:28.770Z,20
2016-08-17T09:37:28.811Z,20
2016-08-17T09:38:28.821Z,20
2016-08-17T09:39:28.825Z,20
2016-08-17T09:40:28.860Z,20
2016-08-17T09:41:28.830Z,25
2016-08-17T09:42:28.951Z,25
2016-08-17T09:43:28.837Z,25
2016-08-17T09:44:28.831Z,25
2016-08-17T09:45:28.881Z,25
2016-08-17T09:46:28.871Z,25
2016-08-17T09:47:28.897Z,25
2016-08-17T09:48:28.879Z,25
2016-08-17T09:49:28.915Z,25
2016-08-17T09:50:28.922Z,25
2016-08-17T09:51:28.933Z,25
2016-08-17T09:52:28.935Z,25
2016-08-17T09:53:28.933Z,25
2016-08-17T09:54:28.963Z,25
2016-08-17T09:55:28.936Z,25
2016-08-17T09:56:28.940Z,25
2016-08-17T09:57:28.966Z,25
2016-08-17T09:58:28.966Z,25
2016-08-17T09:59:28.980Z,25
2016-08-17T10:00:28.977Z,25
2016-08-17T10:01:28.974Z,25
2016-08-17T10:02:29.006Z,25
2016-08-17T10:03:28.998Z,25
2016-08-17T10:04:29.016Z,25
2016-08-17T10:05:29.014Z,25
2016-08-17T10:06:29.020Z,25
2016-08-17T10:07:29.060Z,25
2016-08-17T10:08:29.057Z,25
2016-08-17T10:09:29.080Z,25
2016-08-17T10:10:29.054Z,25
2016-08-17T10:11:29.108Z,25
2016-08-17T10:12:29.107Z,25
2016-08-17T10:13:29.127Z,25
2016-08-17T10:14:29.090Z,25
2016-08-17T10:15:29.135Z,25
2016-08-17T10:16:29.804Z,25
2016-08-17T10:17:29.141Z,25
2016-08-17T10:18:29.157Z,25
2016-08-17T10:19:29.163Z,25
2016-08-17T10:20:29.165Z,25
2016-08-17T10:21:29.178Z,25
2016-08-17T10:22:29.190Z,25
2016-08-17T10:23:29.181Z,25
2016-08-17T10:24:29.181Z,25
2016-08-17T10:25:29.230Z,25
2016-08-17T10:26:29.209Z,25
2016-08-17T10:27:29.230Z,25
2016-08-17T10:28:29.220Z,25
2016-08-17T10:29:29.252Z,25
2016-08-17T10:30:29.248Z,25
2016-08-17T10:31:29.255Z,25
2016-08-17T10:32:29.254Z,25
2016-08-17T10:33:29.279Z,20
2016-08-17T10:34:29.287Z,25
2016-08-17T10:35:29.301Z,25
2016-08-17T10:36:29.298Z,15
2016-08-17T10:37:29.312Z,25
2016-08-17T10:38:29.300Z,25
2016-08-17T10:39:29.322Z,30
2016-08-17T10:40:29.340Z,30
2016-08-17T10:41:29.352Z,30
2016-08-17T10:42:29.346Z,30
2016-08-17T10:43:29.343Z,30
2016-08-17T10:44:29.360Z,30
2016-08-17T10:45:29.395Z,30
2016-08-17T10:46:29.364Z,30
2016-08-17T10:47:29.385Z,30
2016-08-17T10:48:29.391Z,30
2016-08-17T10:49:29.418Z,30
2016-08-17T10:50:29.419Z,30
2016-08-17T10:51:29.437Z,30
2016-08-17T10:52:29.424Z,25
2016-08-17T10:53:29.394Z,30
2016-08-17T10:54:29.445Z,30
2016-08-17T10:55:29.461Z,30
2016-08-17T10:56:29.473Z,30
2016-08-17T10:57:29.497Z,30
2016-08-17T10:58:29.475Z,20
2016-08-17T10:59:29.479Z,20
2016-08-17T11:00:29.522Z,20
2016-08-17T11:01:29.512Z,30
2016-08-17T11:02:29.505Z,20
2016-08-17T11:03:30.239Z,30
2016-08-17T11:04:29.517Z,35
2016-08-17T11:05:29.570Z,30
2016-08-17T11:06:29.539Z,35
2016-08-17T11:07:29.556Z,35
2016-08-17T11:08:29.554Z,35
2016-08-17T11:09:29.593Z,35
2016-08-17T11:10:30.289Z,35
2016-08-17T11:11:29.597Z,35
2016-08-17T11:12:29.632Z,35
2016-08-17T11:13:29.598Z,35
2016-08-17T11:14:29.616Z,35
2016-08-17T11:15:29.627Z,35
2016-08-17T11:16:29.632Z,35
2016-08-17T11:17:29.640Z,35
2016-08-17T11:18:29.630Z,40
2016-08-17T11:19:29.668Z,40
2016-08-17T11:20:29.661Z,35
2016-08-17T11:21:29.670Z,35
2016-08-17T11:22:29.688Z,40
2016-08-17T11:23:29.715Z,40
2016-08-17T11:24:29.705Z,40
2016-08-17T11:25:29.689Z,40
2016-08-17T11:26:29.741Z,40
2016-08-17T11:27:29.724Z,40
2016-08-17T11:28:29.737Z,45
2016-08-17T11:29:29.735Z,45
2016-08-17T11:30:29.768Z,45
2016-08-17T11:31:29.756Z,45
2016-08-17T11:32:29.772Z,45
2016-08-17T11:33:29.777Z,40
2016-08-17T11:34:29.827Z,40
2016-08-17T11:35:29.796Z,40
2016-08-17T11:36:29.837Z,45
2016-08-17T11:37:29.823Z,45
2016-08-17T11:38:29.840Z,45
2016-08-17T11:39:29.848Z,45
2016-08-17T11:40:29.828Z,45
2016-08-17T11:41:29.834Z,45
2016-08-17T11:42:29.953Z,45
2016-08-17T11:43:30.588Z,45
2016-08-17T11:44:29.904Z,45
2016-08-17T11:45:29.910Z,45
2016-08-17T11:46:29.888Z,45
2016-08-17T11:47:29.935Z,45
2016-08-17T11:48:29.938Z,45
2016-08-17T11:49:29.946Z,40
2016-08-17T11:50:29.931Z,40
2016-08-17T11:51:29.945Z,45
2016-08-17T11:52:29.972Z,40
2016-08-17T11:53:29.950Z,40
2016-08-17T11:54:29.992Z,40
2016-08-17T11:55:29.968Z,40
2016-08-17T11:56:29.971Z,40
2016-08-17T11:57:30.029Z,35
2016-08-17T11:58:30.021Z,35
2016-08-17T11:59:30.023Z,35
2016-08-17T12:00:30.027Z,35
2016-08-17T12:01:30.025Z,35
2016-08-17T12:02:30.038Z,40
2016-08-17T12:03:30.054Z,40
2016-08-17T12:04:30.055Z,40
2016-08-17T12:05:30.086Z,40
2016-08-17T12:06:30.086Z,40
2016-08-17T12:07:30.072Z,40
2016-08-17T12:08:30.100Z,40
2016-08-17T12:09:30.093Z,30
2016-08-17T12:10:30.120Z,35
2016-08-17T12:11:30.161Z,35
2016-08-17T12:12:30.128Z,40
2016-08-17T12:13:30.139Z,40
2016-08-17T12:14:30.122Z,40
2016-08-17T12:15:30.177Z,40
2016-08-17T12:16:30.200Z,40
2016-08-17T12:17:30.182Z,40
2016-08-17T12:18:30.216Z,40
2016-08-17T12:19:30.238Z,40
2016-08-17T12:20:30.200Z,40
2016-08-17T12:21:30.241Z,40
2016-08-17T12:22:30.248Z,40
2016-08-17T12:23:30.240Z,40
2016-08-17T12:24:30.255Z,40
2016-08-17T12:25:30.288Z,40
2016-08-17T12:26:30.259Z,40
2016-08-17T12:27:30.262Z,40
2016-08-17T12:28:30.293Z,40
2016-08-17T12:29:30.320Z,40
2016-08-17T12:30:30.308Z,40
2016-08-17T12:31:30.316Z,40
2016-08-17T12:32:30.332Z,35
2016-08-17T12:33:30.340Z,35
2016-08-17T12:34:30.359Z,35
2016-08-17T12:35:30.369Z,35
2016-08-17T12:36:30.356Z,35
2016-08-17T12:37:30.337Z,35
2016-08-17T12:38:30.376Z,35
2016-08-17T12:39:30.390Z,35
2016-08-17T12:40:30.421Z,35
2016-08-17T12:41:30.426Z,35
2016-08-17T12:42:30.427Z,35
2016-08-17T12:43:30.411Z,35
2016-08-17T12:44:30.437Z,35
2016-08-17T12:45:30.466Z,35
2016-08-17T12:46:30.460Z,35
2016-08-17T12:47:30.457Z,35
2016-08-17T12:48:30.468Z,35
2016-08-17T12:49:30.488Z,35
2016-08-17T12:50:30.478Z,35
2016-08-17T12:51:30.482Z,35
2016-08-17T12:52:30.478Z,35
2016-08-17T12:53:30.525Z,35
2016-08-17T12:54:30.535Z,35
2016-08-17T12:55:30.508Z,35
2016-08-17T12:56:30.573Z,35
2016-08-17T12:57:30.535Z,35
2016-08-17T12:58:30.584Z,35
2016-08-17T12:59:30.563Z,35
2016-08-17T13:00:30.568Z,35
2016-08-17T13:01:30.581Z,35
2016-08-17T13:02:30.618Z,35
2016-08-17T13:03:30.643Z,40
2016-08-17T13:04:30.628Z,35
2016-08-17T13:05:30.630Z,35
2016-08-17T13:06:30.665Z,40
2016-08-17T13:07:30.642Z,40
2016-08-17T13:08:30.652Z,40
2016-08-17T13:09:30.681Z,40
2016-08-17T13:10:30.692Z,40
2016-08-17T13:11:30.703Z,40
2016-08-17T13:12:30.699Z,40
2016-08-17T13:13:30.672Z,40
2016-08-17T13:14:30.731Z,40
2016-08-17T13:15:30.710Z,40
2016-08-17T13:16:30.757Z,40
2016-08-17T13:17:30.729Z,40
2016-08-17T13:18:30.751Z,40
2016-08-17T13:19:30.774Z,40
2016-08-17T13:20:30.794Z,35
2016-08-17T13:21:30.804Z,35
2016-08-17T13:22:30.807Z,35
2016-08-17T13:23:30.805Z,35
2016-08-17T13:24:30.823Z,35
2016-08-17T13:25:30.825Z,35
2016-08-17T13:26:30.835Z,35
2016-08-17T13:27:30.862Z,35
2016-08-17T13:28:30.874Z,35
2016-08-17T13:29:30.856Z,35
2016-08-17T13:30:30.879Z,30
2016-08-17T13:31:30.869Z,30
2016-08-17T13:32:30.920Z,30
2016-08-17T13:33:30.917Z,30
2016-08-17T13:34:30.900Z,30
2016-08-17T13:35:30.952Z,30
2016-08-17T13:36:30.921Z,30
2016-08-17T13:37:30.930Z,30
2016-08-17T13:38:30.946Z,30
2016-08-17T13:39:30.975Z,30
2016-08-17T13:40:30.966Z,30
2016-08-17T13:41:31.022Z,30
2016-08-17T13:42:31.070Z,30
2016-08-17T13:43:31.014Z,30
2016-08-17T13:44:30.977Z,30
2016-08-17T13:45:31.040Z,30
2016-08-17T13:46:31.050Z,30
2016-08-17T13:47:31.015Z,30
2016-08-17T13:48:31.074Z,30
2016-08-17T13:49:31.045Z,30
2016-08-17T13:50:31.070Z,25
2016-08-17T13:51:31.077Z,15
2016-08-17T13:52:31.806Z,15
2016-08-17T13:53:31.079Z,25
2016-08-17T13:54:31.075Z,30
2016-08-17T13:55:31.071Z,30
2016-08-17T13:56:31.142Z,20
2016-08-17T13:57:31.142Z,30
2016-08-17T13:58:31.115Z,30
2016-08-17T13:59:31.144Z,30
2016-08-17T14:00:31.139Z,30
2016-08-17T14:01:31.164Z,30
2016-08-17T14:02:31.173Z,30
2016-08-17T14:03:31.220Z,30
2016-08-17T14:04:31.184Z,30
2016-08-17T14:05:31.196Z,30
2016-08-17T14:06:31.201Z,30
2016-08-17T14:07:31.214Z,30
2016-08-17T14:08:31.213Z,30
2016-08-17T14:09:31.239Z,30
2016-08-17T14:10:31.246Z,30
2016-08-17T14:11:31.280Z,30
2016-08-17T14:12:31.286Z,30
2016-08-17T14:13:31.276Z,30
2016-08-17T14:14:31.344Z,30
2016-08-17T14:15:31.313Z,30
2016-08-17T14:16:31.285Z,30
2016-08-17T14:17:31.330Z,30
2016-08-17T14:18:31.309Z,30
2016-08-17T14:19:31.330Z,30
2016-08-17T14:20:31.357Z,30
2016-08-17T14:21:31.374Z,30
2016-08-17T14:22:31.364Z,25
2016-08-17T14:23:31.387Z,25
2016-08-17T14:24:31.392Z,25
2016-08-17T14:25:31.380Z,25
2016-08-17T14:26:31.436Z,25
2016-08-17T14:27:31.405Z,25
2016-08-17T14:28:31.430Z,25
2016-08-17T14:29:31.431Z,25